Zanesville, OH

6:26 PM EDT on April 27, 2017 (GMT -0400)
MC3626 | | Change Station

Elev 862 ft 39.95 °N, 82.00 °W | Updated 16 minutes ago

Partly Cloudy
Partly Cloudy
72.0 °F
Feels Like 74 °F
N
4.0
Wind Variable Wind from WNW

Today
High -- | Low -- °F
--% Chance of Precip.
Yesterday
High -- | Low -- °F
Precip. -- in
Pressure 29.65 in
Visibility 10.0 miles
Clouds Few 9000 ft
Heat Index 74 °F
Dew Point 62 °F
Humidity 71%
Rainfall 0.02 in
Snow Depth Not available.
6:32 AM 8:18 PM
Waxing Crescent, 3% visible
METAR KZZV 272153Z AUTO 26014G24KT 10SM FEW090 23/13 A2967 RMK AO2 PK WND 27033/2140 LTG DSNT SW SLP040 T02330133
Pressure 29.65 in
Visibility 10.0 miles
Clouds Few 9000 ft
Heat Index 74 °F
Dew Point 62 °F
Humidity 71%
Rainfall 0.02 in
Snow Depth Not available.
6:32 AM 8:18 PM
Waxing Crescent, 3% visible
METAR KZZV 272153Z AUTO 26014G24KT 10SM FEW090 23/13 A2967 RMK AO2 PK WND 27033/2140 LTG DSNT SW SLP040 T02330133

Get Severe Weather Alerts

Thanks for signing up!

Be on the lookout for a verification email in your inbox.

You'll start receiving the daily forecast at 8 AM.

×

10-Day Weather Forecast

Almanac

Astronomy

Apr. 27, 2017 Rise Set
Actual Time
Civil Twilight
Nautical Twilight
Astronomical Twilight
Moon
Length of Visible Light
Length of Day
Tomorrow will be .
, % of the Moon is Illuminated

Today's Extremes

State Highs State Lows

Community

WunderPhotos

WunderBlog® & News

Nearby

Air Quality

  Air Quality AQ Index Pollutant
Not available.

Snow Depth

Station Depth Elevation

Earthquake Activity

City Distance Mag. Time & Date
Minimum magnitude displayed is 2.5.

Coastal Water Temperatures

Place Temperature

Stations

Nearby Weather Stations

Station Location Temp. Windchill Dew Point Humidity Wind Precip. Elev Updated Type
                   

Watches & Warnings

There are currently no watches in effect.